createdAt,value
2019-04-06T00:02:01.110Z,29.90
2019-04-06T00:04:30.379Z,30.67
2019-04-06T00:06:59.626Z,27.77
2019-04-06T00:09:28.926Z,27.43
2019-04-06T00:11:58.229Z,26.27
2019-04-06T00:14:27.503Z,27.87
2019-04-06T00:16:56.742Z,27.03
2019-04-06T00:19:25.998Z,28.90
2019-04-06T00:21:55.322Z,30.80
2019-04-06T00:24:24.667Z,31.10
2019-04-06T00:26:53.883Z,28.53
2019-04-06T00:29:23.312Z,30.40
2019-04-06T00:32:08.885Z,29.60
2019-04-06T00:34:38.147Z,31.50
2019-04-06T00:37:07.453Z,29.63
2019-04-06T00:39:36.679Z,31.60
2019-04-06T00:42:05.930Z,30.30
2019-04-06T00:44:35.210Z,32.20
2019-04-06T00:47:04.475Z,31.97
2019-04-06T00:49:33.746Z,30.10
2019-04-06T00:52:03.013Z,30.50
2019-04-06T00:54:32.382Z,30.13
2019-04-06T00:57:01.745Z,29.83
2019-04-06T00:59:31.018Z,31.73
2019-04-06T01:02:00.282Z,33.27
2019-04-06T01:04:29.546Z,33.37
2019-04-06T01:06:58.808Z,32.03
2019-04-06T01:09:28.078Z,31.60
2019-04-06T01:11:57.314Z,32.93
2019-04-06T01:14:26.567Z,34.67
2019-04-06T01:16:55.853Z,31.63
2019-04-06T01:19:25.113Z,30.77
2019-04-06T01:21:54.497Z,31.70
2019-04-06T01:24:23.731Z,31.53
2019-04-06T01:26:53.002Z,31.83
2019-04-06T01:29:22.238Z,30.50
2019-04-06T01:31:51.507Z,32.00
2019-04-06T01:34:20.733Z,33.50
2019-04-06T01:36:50.024Z,33.20
2019-04-06T01:39:19.291Z,36.80
2019-04-06T01:41:48.657Z,32.30
2019-04-06T01:44:17.913Z,34.10
2019-04-06T01:46:47.205Z,36.50
2019-04-06T01:49:16.460Z,30.47
2019-04-06T01:51:45.724Z,30.70
2019-04-06T01:54:14.983Z,35.10
2019-04-06T01:56:44.258Z,28.77
2019-04-06T01:59:13.481Z,29.60
2019-04-06T02:01:54.376Z,31.87
2019-04-06T02:04:23.627Z,29.40
2019-04-06T02:06:52.920Z,29.50
2019-04-06T02:09:22.145Z,31.20
2019-04-06T02:11:51.423Z,30.33
2019-04-06T02:14:20.674Z,28.50
2019-04-06T02:16:49.943Z,27.23
2019-04-06T02:19:19.288Z,30.33
2019-04-06T02:21:48.567Z,28.23
2019-04-06T02:24:17.790Z,26.53
2019-04-06T02:26:47.060Z,31.33
2019-04-06T02:29:16.289Z,28.50
2019-04-06T02:32:10.316Z,29.57
2019-04-06T02:34:58.506Z,27.40
2019-04-06T02:37:49.339Z,25.37
2019-04-06T02:40:40.463Z,25.70
2019-04-06T02:43:21.414Z,26.23
2019-04-06T02:45:50.691Z,27.13
2019-04-06T02:48:19.940Z,23.40
2019-04-06T02:50:49.701Z,25.77
2019-04-06T02:53:18.959Z,24.47
2019-04-06T02:55:48.338Z,25.97
2019-04-06T02:58:17.659Z,29.77
2019-04-06T03:00:46.938Z,24.73
2019-04-06T03:03:16.302Z,25.63
2019-04-06T03:05:45.599Z,24.33
2019-04-06T03:08:15.053Z,26.80
2019-04-06T03:10:44.336Z,25.03
2019-04-06T03:13:13.602Z,24.80
2019-04-06T03:15:43.068Z,25.13
2019-04-06T03:18:12.506Z,22.03
2019-04-06T03:20:41.914Z,23.47
2019-04-06T03:23:11.110Z,25.20
2019-04-06T03:25:40.340Z,23.30
2019-04-06T03:28:09.595Z,24.80
2019-04-06T03:30:39.113Z,23.43
2019-04-06T03:33:08.478Z,22.37
2019-04-06T03:35:37.867Z,20.40
2019-04-06T03:38:07.390Z,21.17
2019-04-06T03:40:37.633Z,18.43
2019-04-06T03:43:07.037Z,20.90
2019-04-06T03:45:36.286Z,22.03
2019-04-06T03:48:06.017Z,19.03
2019-04-06T03:50:35.268Z,19.40
2019-04-06T03:53:04.549Z,21.47
2019-04-06T03:55:33.792Z,19.53
2019-04-06T03:58:03.053Z,18.73
2019-04-06T04:00:32.274Z,17.10
2019-04-06T04:03:01.782Z,21.13
2019-04-06T04:05:31.089Z,23.50
2019-04-06T04:08:00.391Z,22.97
2019-04-06T04:10:34.767Z,22.57
2019-04-06T04:13:04.067Z,21.90
2019-04-06T04:15:33.686Z,21.90
2019-04-06T04:18:03.010Z,21.03
2019-04-06T04:20:32.243Z,20.57
2019-04-06T04:23:01.545Z,22.13
2019-04-06T04:25:30.788Z,21.00
2019-04-06T04:28:00.041Z,15.27
2019-04-06T04:30:32.960Z,16.07
2019-04-06T04:33:00.391Z,12.77
2019-04-06T04:35:29.627Z,13.83
2019-04-06T04:37:58.985Z,12.87
2019-04-06T04:40:28.228Z,12.37
2019-04-06T04:42:57.507Z,13.27
2019-04-06T04:45:26.807Z,12.63
2019-04-06T04:47:56.085Z,11.53
2019-04-06T04:50:25.330Z,11.73
2019-04-06T04:52:54.603Z,12.47
2019-04-06T04:55:23.837Z,11.47
2019-04-06T04:57:53.120Z,21.60
2019-04-06T05:00:22.341Z,24.57
2019-04-06T05:02:51.620Z,21.77
2019-04-06T05:05:20.864Z,21.77
2019-04-06T05:07:50.125Z,24.40
2019-04-06T05:10:19.399Z,27.13
2019-04-06T05:12:48.713Z,27.90
2019-04-06T05:15:24.385Z,26.57
2019-04-06T05:17:53.612Z,30.37
2019-04-06T05:20:24.007Z,28.87
2019-04-06T05:22:53.293Z,31.73
2019-04-06T05:25:22.569Z,34.27
2019-04-06T05:27:53.068Z,30.43
2019-04-06T05:30:22.674Z,29.83
2019-04-06T05:32:51.948Z,32.90
2019-04-06T05:35:21.220Z,29.23
2019-04-06T05:37:50.466Z,30.27
2019-04-06T05:40:19.794Z,28.03
2019-04-06T05:42:49.084Z,31.03
2019-04-06T05:45:18.360Z,29.20
2019-04-06T05:47:47.751Z,30.07
2019-04-06T05:50:16.943Z,27.83
2019-04-06T05:52:46.215Z,28.03
2019-04-06T05:55:15.493Z,26.63
2019-04-06T05:57:44.759Z,27.10
2019-04-06T06:00:14.548Z,26.13
2019-04-06T06:02:43.784Z,25.67
2019-04-06T06:05:13.470Z,21.33
2019-04-06T06:07:42.833Z,24.87
2019-04-06T06:10:12.329Z,28.00
2019-04-06T06:12:41.574Z,25.03
2019-04-06T06:15:11.345Z,27.10
2019-04-06T06:17:40.596Z,27.53
2019-04-06T06:20:10.393Z,26.27
2019-04-06T06:22:39.634Z,25.03
2019-04-06T06:25:09.760Z,25.93
2019-04-06T06:27:39.135Z,27.57
2019-04-06T06:30:09.222Z,24.73
2019-04-06T06:32:38.478Z,25.93
2019-04-06T06:35:08.048Z,26.57
2019-04-06T06:37:37.314Z,25.10
2019-04-06T06:40:07.068Z,22.60
2019-04-06T06:42:36.326Z,20.70
2019-04-06T06:45:06.850Z,22.93
2019-04-06T06:47:36.095Z,19.57
2019-04-06T06:50:06.141Z,21.10
2019-04-06T06:52:35.400Z,20.20
2019-04-06T06:55:04.929Z,20.93
2019-04-06T06:57:34.134Z,22.37
2019-04-06T07:00:03.674Z,22.80
2019-04-06T07:02:32.889Z,20.33
2019-04-06T07:05:02.154Z,18.93
2019-04-06T07:07:31.418Z,21.67
2019-04-06T07:10:05.760Z,19.33
2019-04-06T07:12:31.674Z,19.47
2019-04-06T07:15:01.081Z,15.33
2019-04-06T07:17:30.343Z,16.50
2019-04-06T07:19:59.592Z,17.53
2019-04-06T07:22:28.924Z,19.27
2019-04-06T07:24:58.184Z,16.37
2019-04-06T07:27:27.520Z,18.47
2019-04-06T07:29:56.759Z,14.23
2019-04-06T07:32:26.055Z,15.67
2019-04-06T07:34:55.391Z,14.13
2019-04-06T07:37:24.670Z,13.67
2019-04-06T07:39:53.925Z,13.47
2019-04-06T07:42:23.457Z,14.37
2019-04-06T07:44:52.742Z,11.57
2019-04-06T07:47:22.101Z,11.17
2019-04-06T07:49:51.370Z,12.57
2019-04-06T07:52:20.997Z,11.80
2019-04-06T07:54:50.390Z,12.05
2019-04-06T07:57:19.629Z,12.53
2019-04-06T07:59:48.941Z,13.73
2019-04-06T08:02:18.625Z,13.87
2019-04-06T08:04:48.104Z,14.43
2019-04-06T08:07:17.651Z,14.60
2019-04-06T08:09:46.854Z,14.83
2019-04-06T08:12:16.139Z,14.23
2019-04-06T08:14:45.396Z,13.57
2019-04-06T08:17:14.664Z,14.30
2019-04-06T08:19:44.101Z,14.53
2019-04-06T08:22:13.460Z,14.30
2019-04-06T08:24:42.705Z,14.37
2019-04-06T08:27:12.242Z,14.20
2019-04-06T08:29:41.795Z,14.47
2019-04-06T08:32:11.168Z,14.20
2019-04-06T08:34:40.387Z,14.75
2019-04-06T08:37:09.646Z,14.53
2019-04-06T08:39:39.112Z,14.05
2019-04-06T08:42:08.758Z,12.82
2019-04-06T08:44:37.953Z,12.60
2019-04-06T08:47:07.214Z,12.58
2019-04-06T08:49:36.461Z,13.25
2019-04-06T08:52:05.771Z,13.72
2019-04-06T08:54:34.987Z,13.68
2019-04-06T08:57:04.261Z,13.68
2019-04-06T08:59:33.570Z,13.65
2019-04-06T09:02:02.830Z,13.98
2019-04-06T09:04:32.081Z,14.40
2019-04-06T09:07:01.605Z,13.72
2019-04-06T09:09:31.000Z,14.00
2019-04-06T09:12:00.257Z,14.70
2019-04-06T09:14:29.541Z,15.83
2019-04-06T09:16:58.759Z,15.70
2019-04-06T09:19:28.065Z,15.00
2019-04-06T09:21:57.349Z,14.77
2019-04-06T09:24:26.595Z,14.17
2019-04-06T09:26:55.856Z,13.55
2019-04-06T09:29:25.131Z,13.00
2019-04-06T09:31:54.394Z,13.00
2019-04-06T09:34:23.658Z,13.72
2019-04-06T09:36:52.925Z,13.68
2019-04-06T09:39:22.158Z,12.65
2019-04-06T09:41:51.548Z,12.53
2019-04-06T09:44:42.497Z,13.30
2019-04-06T09:47:21.441Z,13.78
2019-04-06T09:50:16.926Z,13.25
2019-04-06T09:53:05.153Z,13.03
2019-04-06T09:55:43.182Z,12.93
2019-04-06T09:58:37.422Z,12.98
2019-04-06T10:01:24.535Z,12.73
2019-04-06T10:04:12.941Z,11.90
2019-04-06T10:06:59.886Z,11.30
2019-04-06T10:09:48.326Z,11.78
2019-04-06T10:12:55.051Z,10.70
2019-04-06T10:15:34.432Z,11.08
2019-04-06T10:18:22.645Z,11.85
2019-04-06T10:21:02.604Z,13.08
2019-04-06T10:23:49.510Z,12.58
2019-04-06T10:26:49.783Z,12.50
2019-04-06T10:29:30.231Z,12.13
2019-04-06T10:32:16.489Z,12.82
2019-04-06T10:35:03.301Z,12.05
2019-04-06T10:38:10.067Z,12.40
2019-04-06T10:40:47.816Z,11.25
2019-04-06T10:43:36.027Z,11.68
2019-04-06T10:46:30.417Z,12.35
2019-04-06T10:49:18.813Z,12.28
2019-04-06T10:52:00.724Z,12.73
2019-04-06T10:55:07.329Z,11.50
2019-04-06T10:57:55.532Z,11.40
2019-04-06T11:00:52.805Z,11.68
2019-04-06T11:03:34.042Z,12.68
2019-04-06T11:06:09.044Z,13.55
2019-04-06T11:09:03.220Z,13.00
2019-04-06T11:11:57.379Z,12.95
2019-04-06T11:14:36.611Z,12.55
2019-04-06T11:17:24.813Z,14.20
2019-04-06T11:20:13.016Z,12.45
2019-04-06T11:22:53.686Z,12.18
2019-04-06T11:25:40.493Z,12.40
2019-04-06T11:28:44.097Z,12.85
2019-04-06T11:31:35.384Z,13.30
2019-04-06T11:34:12.549Z,13.40
2019-04-06T11:37:03.104Z,12.53
2019-04-06T11:39:50.116Z,11.73
2019-04-06T11:42:29.656Z,12.30
2019-04-06T11:45:16.592Z,12.05
2019-04-06T11:47:52.524Z,12.78
2019-04-06T11:50:58.757Z,12.20
2019-04-06T11:53:44.641Z,12.93
2019-04-06T11:56:31.530Z,11.97
2019-04-06T11:59:38.156Z,12.07
2019-04-06T12:02:19.042Z,10.38
2019-04-06T12:04:58.184Z,10.68
2019-04-06T12:07:42.619Z,10.45
2019-04-06T12:10:25.814Z,9.78
2019-04-06T12:13:16.910Z,9.45
2019-04-06T12:16:14.484Z,10.03
2019-04-06T12:18:58.279Z,10.93
2019-04-06T12:21:55.550Z,10.60
2019-04-06T12:24:45.924Z,9.97
2019-04-06T12:27:34.096Z,10.00
2019-04-06T12:30:36.943Z,8.77
2019-04-06T12:33:07.963Z,8.70
2019-04-06T12:35:52.548Z,9.30
2019-04-06T12:38:33.411Z,7.73
2019-04-06T12:41:30.693Z,8.83
2019-04-06T12:44:13.779Z,9.10
2019-04-06T12:47:00.779Z,8.20
2019-04-06T12:49:48.215Z,9.33
2019-04-06T12:52:40.083Z,9.17
2019-04-06T12:55:15.093Z,9.50
2019-04-06T12:57:55.296Z,9.40
2019-04-06T13:00:52.136Z,8.70
2019-04-06T13:03:48.732Z,8.28
2019-04-06T13:06:55.047Z,8.45
2019-04-06T13:09:49.913Z,9.27
2019-04-06T13:12:44.096Z,10.03
2019-04-06T13:15:32.484Z,9.80
2019-04-06T13:18:20.698Z,9.57
2019-04-06T13:21:09.129Z,9.47
2019-04-06T13:23:53.109Z,8.30
2019-04-06T13:26:44.526Z,10.67
2019-04-06T13:29:47.804Z,12.03
2019-04-06T13:32:45.218Z,9.83
2019-04-06T13:35:23.358Z,11.10
2019-04-06T13:38:07.158Z,9.90
2019-04-06T13:40:54.246Z,9.03
2019-04-06T13:43:39.463Z,9.97
2019-04-06T13:46:20.320Z,10.33
2019-04-06T13:49:06.641Z,10.00
2019-04-06T13:51:53.703Z,9.90
2019-04-06T13:54:41.283Z,9.28
2019-04-06T13:57:28.115Z,8.60
2019-04-06T14:00:16.340Z,8.73
2019-04-06T14:02:53.983Z,9.03
2019-04-06T14:05:36.037Z,8.50
2019-04-06T14:08:36.383Z,8.43
2019-04-06T14:11:18.960Z,8.00
2019-04-06T14:14:06.509Z,7.85
2019-04-06T14:17:06.807Z,8.83
2019-04-06T14:19:53.648Z,9.30
2019-04-06T14:22:45.200Z,9.30
2019-04-06T14:25:40.320Z,9.10
2019-04-06T14:28:31.695Z,9.10
2019-04-06T14:31:28.259Z,9.23
2019-04-06T14:34:09.925Z,9.10
2019-04-06T14:36:50.648Z,8.87
2019-04-06T14:39:37.736Z,8.13
2019-04-06T14:42:23.231Z,8.27
2019-04-06T14:45:11.415Z,8.60
2019-04-06T14:47:52.297Z,7.77
2019-04-06T14:50:40.642Z,9.60
2019-04-06T14:53:38.000Z,9.03
2019-04-06T14:56:26.591Z,7.27
2019-04-06T14:59:17.472Z,7.27
2019-04-06T15:02:06.045Z,6.40
2019-04-06T15:04:47.129Z,7.67
2019-04-06T15:07:35.727Z,6.43
2019-04-06T15:10:25.267Z,7.33
2019-04-06T15:13:19.302Z,6.60
2019-04-06T15:16:10.027Z,6.40
2019-04-06T15:19:07.327Z,6.00
2019-04-06T15:21:54.163Z,6.03
2019-04-06T15:24:51.335Z,6.40
2019-04-06T15:27:36.771Z,6.13
2019-04-06T15:30:24.706Z,5.90
2019-04-06T15:33:27.963Z,6.00
2019-04-06T15:36:16.368Z,5.67
2019-04-06T15:39:07.583Z,5.60
2019-04-06T15:41:58.663Z,5.93
2019-04-06T15:44:55.940Z,5.53
2019-04-06T15:47:38.652Z,5.87
2019-04-06T15:50:26.405Z,5.40
2019-04-06T15:53:14.034Z,5.30
2019-04-06T15:56:00.842Z,7.37
2019-04-06T15:58:36.524Z,4.60
2019-04-06T16:01:21.055Z,4.83
2019-04-06T16:03:58.842Z,4.83
2019-04-06T16:06:38.181Z,4.33
2019-04-06T16:09:25.598Z,4.77
2019-04-06T16:12:06.976Z,4.77
2019-04-06T16:14:54.046Z,4.50
2019-04-06T16:17:42.322Z,4.30
2019-04-06T16:20:28.839Z,4.00
2019-04-06T16:23:13.895Z,3.70
2019-04-06T16:26:02.096Z,4.07
2019-04-06T16:28:41.819Z,3.47
2019-04-06T16:31:39.129Z,3.50
2019-04-06T16:34:25.422Z,3.27
2019-04-06T16:37:04.705Z,4.00
2019-04-06T16:39:52.996Z,3.40
2019-04-06T16:42:44.189Z,3.50
2019-04-06T16:45:28.828Z,5.70
2019-04-06T16:48:10.479Z,9.57
2019-04-06T16:50:57.685Z,9.43
2019-04-06T16:53:44.133Z,10.67
2019-04-06T16:56:32.343Z,9.27
2019-04-06T16:59:19.309Z,11.17
2019-04-06T17:02:22.202Z,4.33
2019-04-06T17:05:03.653Z,7.97
2019-04-06T17:07:41.969Z,2.60
2019-04-06T17:10:24.706Z,2.50
2019-04-06T17:13:13.084Z,4.77
2019-04-06T17:15:59.944Z,2.50
2019-04-06T17:18:51.076Z,2.70
2019-04-06T17:21:48.391Z,2.60
2019-04-06T17:24:35.466Z,2.40
2019-04-06T17:27:22.505Z,2.60
2019-04-06T17:30:02.032Z,3.40
2019-04-06T17:32:40.288Z,3.50
2019-04-06T17:35:34.684Z,2.50
2019-04-06T17:38:16.990Z,2.40
2019-04-06T17:41:01.747Z,2.90
2019-04-06T17:43:43.032Z,2.70
2019-04-06T17:46:34.035Z,2.60
2019-04-06T17:49:25.153Z,3.83
2019-04-06T17:52:12.104Z,2.93
2019-04-06T17:55:03.061Z,3.00
2019-04-06T17:57:50.119Z,8.50
2019-04-06T18:00:37.083Z,2.70
2019-04-06T18:03:31.401Z,3.13
2019-04-06T18:06:14.072Z,2.90
2019-04-06T18:08:59.139Z,2.80
2019-04-06T18:11:44.599Z,2.80
2019-04-06T18:14:13.832Z,2.70
2019-04-06T18:16:43.076Z,3.10
2019-04-06T18:19:12.871Z,2.70
2019-04-06T18:21:42.667Z,3.00
2019-04-06T18:24:12.579Z,2.90
2019-04-06T18:26:42.149Z,2.80
2019-04-06T18:29:11.836Z,2.90
2019-04-06T18:31:50.185Z,3.07
2019-04-06T18:34:23.817Z,4.23
2019-04-06T18:37:00.243Z,3.47
2019-04-06T18:39:30.093Z,3.30
2019-04-06T18:41:59.896Z,5.53
2019-04-06T18:44:29.810Z,4.93
2019-04-06T18:46:59.611Z,3.23
2019-04-06T18:49:29.519Z,2.90
2019-04-06T18:51:59.520Z,2.80
2019-04-06T18:54:29.122Z,2.70
2019-04-06T18:56:59.053Z,3.27
2019-04-06T18:59:28.660Z,3.40
2019-04-06T19:01:58.882Z,3.07
2019-04-06T19:04:28.629Z,2.80
2019-04-06T19:06:58.331Z,3.53
2019-04-06T19:09:28.097Z,3.10
2019-04-06T19:11:57.443Z,2.90
2019-04-06T19:14:27.020Z,17.93
2019-04-06T19:16:56.228Z,84.07
2019-04-06T19:19:26.087Z,23.27
2019-04-06T19:21:55.678Z,7.87
2019-04-06T19:24:24.950Z,5.67
2019-04-06T19:26:54.205Z,3.80
2019-04-06T19:29:23.950Z,4.00
2019-04-06T19:31:53.383Z,3.30
2019-04-06T19:34:22.647Z,3.67
2019-04-06T19:36:52.185Z,4.03
2019-04-06T19:39:21.462Z,5.53
2019-04-06T19:41:51.069Z,5.70
2019-04-06T19:44:20.591Z,6.90
2019-04-06T19:46:50.376Z,7.97
2019-04-06T19:49:19.900Z,7.33
2019-04-06T19:51:49.194Z,7.73
2019-04-06T19:54:18.805Z,6.40
2019-04-06T19:56:48.594Z,6.37
2019-04-06T19:59:18.570Z,6.70
2019-04-06T20:01:48.186Z,6.70
2019-04-06T20:04:17.499Z,6.10
2019-04-06T20:06:46.763Z,5.67
2019-04-06T20:09:16.122Z,5.93
2019-04-06T20:11:45.578Z,6.43
2019-04-06T20:14:14.950Z,6.67
2019-04-06T20:16:44.312Z,6.63
2019-04-06T20:19:14.068Z,6.13
2019-04-06T20:21:43.484Z,6.60
2019-04-06T20:24:12.848Z,9.10
2019-04-06T20:26:42.077Z,4.67
2019-04-06T20:29:11.626Z,4.87
2019-04-06T20:31:40.888Z,8.50
2019-04-06T20:34:10.773Z,15.30
2019-04-06T20:36:40.809Z,15.27
2019-04-06T20:39:10.563Z,7.20
2019-04-06T20:41:39.915Z,5.07
2019-04-06T20:44:09.193Z,10.17
2019-04-06T20:46:38.678Z,8.97
2019-04-06T20:49:08.028Z,9.03
2019-04-06T20:51:37.927Z,10.73
2019-04-06T20:54:10.631Z,9.10
2019-04-06T20:56:40.022Z,5.73
2019-04-06T20:59:09.363Z,4.67
2019-04-06T21:01:38.660Z,4.17
2019-04-06T21:04:08.234Z,3.87
2019-04-06T21:06:37.600Z,4.10
2019-04-06T21:09:12.191Z,4.73
2019-04-06T21:11:41.515Z,4.47
2019-04-06T21:14:11.124Z,5.47
2019-04-06T21:16:40.659Z,4.73
2019-04-06T21:19:10.306Z,4.87
2019-04-06T21:21:39.812Z,6.60
2019-04-06T21:24:09.080Z,5.53
2019-04-06T21:26:38.837Z,4.17
2019-04-06T21:29:08.305Z,4.00
2019-04-06T21:31:40.026Z,4.53
2019-04-06T21:34:13.434Z,4.50
2019-04-06T21:36:40.680Z,3.63
2019-04-06T21:39:10.863Z,3.70
2019-04-06T21:41:40.684Z,4.13
2019-04-06T21:44:10.101Z,3.43
2019-04-06T21:46:39.431Z,4.10
2019-04-06T21:49:08.819Z,4.50
2019-04-06T21:51:38.106Z,4.23
2019-04-06T21:54:07.867Z,4.67
2019-04-06T21:56:37.528Z,5.47
2019-04-06T21:59:06.759Z,4.53
2019-04-06T22:01:36.912Z,4.50
2019-04-06T22:04:06.543Z,5.13
2019-04-06T22:06:36.020Z,4.20
2019-04-06T22:09:11.750Z,4.40
2019-04-06T22:11:41.635Z,6.47
2019-04-06T22:14:11.211Z,5.07
2019-04-06T22:16:40.496Z,4.33
2019-04-06T22:19:09.762Z,4.63
2019-04-06T22:21:39.513Z,4.80
2019-04-06T22:24:09.476Z,4.60
2019-04-06T22:26:39.378Z,4.60
2019-04-06T22:29:09.166Z,4.33
2019-04-06T22:31:38.548Z,4.87
2019-04-06T22:34:08.095Z,4.23
2019-04-06T22:36:37.427Z,3.73
2019-04-06T22:39:09.006Z,3.63
2019-04-06T22:41:38.985Z,3.40
2019-04-06T22:44:08.577Z,3.60
2019-04-06T22:46:38.095Z,4.43
2019-04-06T22:49:07.866Z,3.13
2019-04-06T22:51:37.924Z,3.33
2019-04-06T22:54:08.012Z,3.20
2019-04-06T22:56:37.611Z,3.00
2019-04-06T22:59:07.460Z,3.03
2019-04-06T23:01:38.960Z,3.27
2019-04-06T23:04:20.402Z,3.20
2019-04-06T23:06:55.169Z,3.23
2019-04-06T23:09:24.603Z,2.80
2019-04-06T23:11:54.242Z,3.10
2019-04-06T23:14:23.519Z,3.07
2019-04-06T23:16:53.030Z,3.63
2019-04-06T23:19:22.575Z,2.97
2019-04-06T23:21:52.052Z,3.10
2019-04-06T23:24:21.612Z,2.80
2019-04-06T23:26:51.511Z,2.77
2019-04-06T23:29:21.149Z,2.97
2019-04-06T23:31:50.416Z,2.83
2019-04-06T23:34:20.332Z,3.00
2019-04-06T23:36:50.024Z,3.27
2019-04-06T23:39:19.442Z,2.60
2019-04-06T23:41:48.679Z,2.63
2019-04-06T23:44:18.454Z,2.77
2019-04-06T23:46:47.890Z,2.50
2019-04-06T23:49:17.150Z,2.70
2019-04-06T23:51:46.414Z,2.40
2019-04-06T23:54:15.993Z,2.40
2019-04-06T23:56:45.423Z,2.13
2019-04-06T23:59:14.955Z,2.40
